createdAt,value
2018-04-22T00:00:01.441Z,14.32
2018-04-22T00:02:28.956Z,14.23
2018-04-22T00:04:56.520Z,14.15
2018-04-22T00:07:24.047Z,14.18
2018-04-22T00:09:51.578Z,14.15
2018-04-22T00:12:19.109Z,14.02
2018-04-22T00:14:46.659Z,14.00
2018-04-22T00:17:14.183Z,13.94
2018-04-22T00:19:41.698Z,13.99
2018-04-22T00:22:09.231Z,13.92
2018-04-22T00:24:36.865Z,14.08
2018-04-22T00:27:04.424Z,13.94
2018-04-22T00:29:31.940Z,13.86
2018-04-22T00:31:59.553Z,13.84
2018-04-22T00:34:27.077Z,13.84
2018-04-22T00:36:54.600Z,13.76
2018-04-22T00:39:22.220Z,13.79
2018-04-22T00:41:49.780Z,13.70
2018-04-22T00:44:17.312Z,13.74
2018-04-22T00:46:44.844Z,13.71
2018-04-22T00:49:12.363Z,13.65
2018-04-22T00:51:39.887Z,13.77
2018-04-22T00:54:19.313Z,13.61
2018-04-22T00:56:46.833Z,13.60
2018-04-22T00:59:14.482Z,13.64
2018-04-22T01:01:42.008Z,13.62
2018-04-22T01:04:09.524Z,13.49
2018-04-22T01:06:37.057Z,13.64
2018-04-22T01:09:06.398Z,13.56
2018-04-22T01:11:33.929Z,13.47
2018-04-22T01:14:01.453Z,13.64
2018-04-22T01:16:29.040Z,13.50
2018-04-22T01:18:56.600Z,13.38
2018-04-22T01:21:24.164Z,13.28
2018-04-22T01:23:51.687Z,13.22
2018-04-22T01:26:19.213Z,13.31
2018-04-22T01:28:46.744Z,13.20
2018-04-22T01:31:14.267Z,13.24
2018-04-22T01:33:41.831Z,13.27
2018-04-22T01:36:09.361Z,13.31
2018-04-22T01:38:36.885Z,13.15
2018-04-22T01:41:04.418Z,13.20
2018-04-22T01:43:31.955Z,12.98
2018-04-22T01:45:59.562Z,12.87
2018-04-22T01:48:27.124Z,13.04
2018-04-22T01:50:54.637Z,13.01
2018-04-22T01:53:22.164Z,12.82
2018-04-22T01:55:49.698Z,12.80
2018-04-22T01:58:17.239Z,12.75
2018-04-22T02:00:44.774Z,12.92
2018-04-22T02:03:12.309Z,12.77
2018-04-22T02:05:39.842Z,12.82
2018-04-22T02:08:07.364Z,12.87
2018-04-22T02:10:34.910Z,12.87
2018-04-22T02:13:02.910Z,12.78
2018-04-22T02:15:30.439Z,12.78
2018-04-22T02:17:58.046Z,12.79
2018-04-22T02:20:25.580Z,12.84
2018-04-22T02:22:53.164Z,12.75
2018-04-22T02:25:20.695Z,12.80
2018-04-22T02:27:48.287Z,12.87
2018-04-22T02:30:15.850Z,12.60
2018-04-22T02:32:43.376Z,12.57
2018-04-22T02:35:10.899Z,12.55
2018-04-22T02:37:38.523Z,12.51
2018-04-22T02:40:06.054Z,12.56
2018-04-22T02:42:33.571Z,12.55
2018-04-22T02:45:01.101Z,12.42
2018-04-22T02:47:28.659Z,12.44
2018-04-22T02:49:56.195Z,12.47
2018-04-22T02:52:23.781Z,12.47
2018-04-22T02:54:51.309Z,12.38
2018-04-22T02:57:18.843Z,12.30
2018-04-22T02:59:46.372Z,12.21
2018-04-22T03:02:14.023Z,12.19
2018-04-22T03:04:41.551Z,12.23
2018-04-22T03:07:09.081Z,12.19
2018-04-22T03:09:36.601Z,12.17
2018-04-22T03:12:04.127Z,12.16
2018-04-22T03:14:31.657Z,12.26
2018-04-22T03:16:59.177Z,12.13
2018-04-22T03:19:26.701Z,12.04
2018-04-22T03:21:54.219Z,12.05
2018-04-22T03:24:21.855Z,12.02
2018-04-22T03:26:49.381Z,12.00
2018-04-22T03:29:16.980Z,11.97
2018-04-22T03:31:44.504Z,11.99
2018-04-22T03:34:12.028Z,11.84
2018-04-22T03:36:39.588Z,11.87
2018-04-22T03:39:07.111Z,11.88
2018-04-22T03:41:34.638Z,11.94
2018-04-22T03:44:02.168Z,12.01
2018-04-22T03:46:29.690Z,11.86
2018-04-22T03:48:57.219Z,11.98
2018-04-22T03:51:24.745Z,11.83
2018-04-22T03:53:52.370Z,11.90
2018-04-22T03:56:19.900Z,11.97
2018-04-22T03:58:47.455Z,11.86
2018-04-22T04:01:14.976Z,11.82
2018-04-22T04:03:42.511Z,11.91
2018-04-22T04:06:10.037Z,11.95
2018-04-22T04:08:37.567Z,11.86
2018-04-22T04:11:05.090Z,11.90
2018-04-22T04:13:32.613Z,11.90
2018-04-22T04:16:00.141Z,11.84
2018-04-22T04:21:50.313Z,11.93
2018-04-22T04:24:38.458Z,11.87
2018-04-22T04:27:17.937Z,11.84
2018-04-22T04:29:45.557Z,11.91
2018-04-22T04:32:13.117Z,11.90
2018-04-22T04:34:40.646Z,11.92
2018-04-22T04:37:08.167Z,11.96
2018-04-22T04:39:35.700Z,12.01
2018-04-22T04:42:03.223Z,12.14
2018-04-22T04:44:30.751Z,12.24
2018-04-22T04:46:58.279Z,12.37
2018-04-22T04:49:25.799Z,12.37
2018-04-22T04:51:53.324Z,12.60
2018-04-22T04:54:20.874Z,12.53
2018-04-22T04:56:48.411Z,12.54
2018-04-22T04:59:15.923Z,12.59
2018-04-22T05:01:43.462Z,12.65
2018-04-22T05:04:10.990Z,12.88
2018-04-22T05:06:38.522Z,12.96
2018-04-22T05:09:06.039Z,12.89
2018-04-22T05:11:33.565Z,12.98
2018-04-22T05:14:01.091Z,13.08
2018-04-22T05:16:28.612Z,13.12
2018-04-22T05:18:56.139Z,13.30
2018-04-22T05:21:23.668Z,13.45
2018-04-22T05:23:51.197Z,13.45
2018-04-22T05:26:18.708Z,13.55
2018-04-22T05:28:46.216Z,13.57
2018-04-22T05:31:13.783Z,13.77
2018-04-22T05:33:41.283Z,13.94
2018-04-22T05:36:08.801Z,13.74
2018-04-22T05:38:36.350Z,14.09
2018-04-22T05:41:03.880Z,13.94
2018-04-22T05:43:31.399Z,14.28
2018-04-22T05:45:58.930Z,14.62
2018-04-22T05:48:26.449Z,14.66
2018-04-22T05:50:54.014Z,15.12
2018-04-22T05:53:21.569Z,15.08
2018-04-22T05:55:49.094Z,15.29
2018-04-22T05:58:16.622Z,15.37
2018-04-22T06:00:44.184Z,15.18
2018-04-22T06:03:11.716Z,15.55
2018-04-22T06:05:39.233Z,15.43
2018-04-22T06:08:06.759Z,15.95
2018-04-22T06:10:34.290Z,15.87
2018-04-22T06:13:01.822Z,16.32
2018-04-22T06:15:29.344Z,16.35
2018-04-22T06:17:56.882Z,16.47
2018-04-22T06:20:24.409Z,16.32
2018-04-22T06:22:51.957Z,17.34
2018-04-22T06:25:19.482Z,16.73
2018-04-22T06:27:47.028Z,17.45
2018-04-22T06:30:14.548Z,17.59
2018-04-22T06:32:42.077Z,17.51
2018-04-22T06:35:09.612Z,18.01
2018-04-22T06:37:37.139Z,18.15
2018-04-22T06:40:04.671Z,17.98
2018-04-22T06:42:32.184Z,18.54
2018-04-22T06:44:59.704Z,18.64
2018-04-22T06:47:27.238Z,19.09
2018-04-22T06:49:54.767Z,19.60
2018-04-22T06:52:22.283Z,20.56
2018-04-22T06:54:49.825Z,19.77
2018-04-22T06:57:17.375Z,21.37
2018-04-22T06:59:44.936Z,21.04
2018-04-22T07:02:12.494Z,20.99
2018-04-22T07:04:40.096Z,21.13
2018-04-22T07:07:07.656Z,21.26
2018-04-22T07:09:35.184Z,22.58
2018-04-22T07:12:02.711Z,21.56
2018-04-22T07:14:30.238Z,22.00
2018-04-22T07:16:57.761Z,23.01
2018-04-22T07:19:25.294Z,23.11
2018-04-22T07:21:52.825Z,22.74
2018-04-22T07:24:20.400Z,23.18
2018-04-22T07:26:48.035Z,23.14
2018-04-22T07:29:15.579Z,23.93
2018-04-22T07:31:43.257Z,25.00
2018-04-22T07:34:10.787Z,23.88
2018-04-22T07:36:38.309Z,23.98
2018-04-22T07:39:06.639Z,22.88
2018-04-22T07:41:34.160Z,24.74
2018-04-22T07:44:01.762Z,25.01
2018-04-22T07:46:29.297Z,23.44
2018-04-22T07:48:56.892Z,24.11
2018-04-22T07:51:24.407Z,24.78
2018-04-22T07:53:51.948Z,25.44
2018-04-22T07:56:19.466Z,24.94
2018-04-22T07:58:46.995Z,24.95
2018-04-22T08:01:14.529Z,26.26
2018-04-22T08:03:42.087Z,25.58
2018-04-22T08:06:09.646Z,25.84
2018-04-22T08:08:37.175Z,27.29
2018-04-22T08:11:04.695Z,26.76
2018-04-22T08:13:32.252Z,28.13
2018-04-22T08:15:59.815Z,28.39
2018-04-22T08:18:27.402Z,27.40
2018-04-22T08:20:54.937Z,27.55
2018-04-22T08:23:22.456Z,28.29
2018-04-22T08:25:49.972Z,27.78
2018-04-22T08:28:17.519Z,28.92
2018-04-22T08:30:45.102Z,29.31
2018-04-22T08:33:12.636Z,30.01
2018-04-22T08:35:40.151Z,29.85
2018-04-22T08:38:07.681Z,30.90
2018-04-22T08:40:35.217Z,29.68
2018-04-22T08:43:02.804Z,31.67
2018-04-22T08:45:30.345Z,30.37
2018-04-22T08:47:57.903Z,32.05
2018-04-22T08:50:25.426Z,30.94
2018-04-22T08:52:52.960Z,31.97
2018-04-22T08:55:20.499Z,33.85
2018-04-22T08:57:48.029Z,30.99
2018-04-22T09:00:15.565Z,31.14
2018-04-22T09:02:43.180Z,32.32
2018-04-22T09:05:10.734Z,30.92
2018-04-22T09:07:38.269Z,32.33
2018-04-22T09:10:05.783Z,32.91
2018-04-22T09:12:33.421Z,34.43
2018-04-22T09:15:00.951Z,34.60
2018-04-22T09:17:28.483Z,33.55
2018-04-22T09:19:56.016Z,33.59
2018-04-22T09:22:23.539Z,34.22
2018-04-22T09:24:51.069Z,34.12
2018-04-22T09:27:18.643Z,34.53
2018-04-22T09:29:46.209Z,31.92
2018-04-22T09:32:13.737Z,33.68
2018-04-22T09:34:41.263Z,33.67
2018-04-22T09:37:08.779Z,34.61
2018-04-22T09:39:36.341Z,35.05
2018-04-22T09:42:03.876Z,31.72
2018-04-22T09:44:31.391Z,35.71
2018-04-22T09:46:58.916Z,34.57
2018-04-22T09:49:26.509Z,34.75
2018-04-22T09:51:54.037Z,34.19
2018-04-22T09:54:21.579Z,33.53
2018-04-22T09:56:49.191Z,33.17
2018-04-22T09:59:16.717Z,31.88
2018-04-22T10:01:44.238Z,31.66
2018-04-22T10:04:11.767Z,33.02
2018-04-22T10:06:39.309Z,31.87
2018-04-22T10:09:06.834Z,33.97
2018-04-22T10:11:34.380Z,30.72
2018-04-22T10:14:01.905Z,29.20
2018-04-22T10:16:29.457Z,39.98
2018-04-22T10:18:56.991Z,41.07
2018-04-22T10:21:24.512Z,40.95
2018-04-22T10:23:52.117Z,40.54
2018-04-22T10:26:19.627Z,39.96
2018-04-22T10:28:47.147Z,42.24
2018-04-22T10:31:14.676Z,41.42
2018-04-22T10:33:42.238Z,37.45
2018-04-22T10:36:09.775Z,36.70
2018-04-22T10:38:37.326Z,32.98
2018-04-22T10:41:04.844Z,31.54
2018-04-22T10:43:32.374Z,31.19
2018-04-22T10:45:59.922Z,29.11
2018-04-22T10:48:27.535Z,30.35
2018-04-22T10:50:55.068Z,30.07
2018-04-22T10:53:22.660Z,28.70
2018-04-22T10:55:50.183Z,28.94
2018-04-22T10:58:17.716Z,27.67
2018-04-22T11:00:45.264Z,27.13
2018-04-22T11:03:12.796Z,27.19
2018-04-22T11:05:40.360Z,27.10
2018-04-22T11:08:07.883Z,27.23
2018-04-22T11:10:35.403Z,26.68
2018-04-22T11:13:03.023Z,26.39
2018-04-22T11:15:30.566Z,26.83
2018-04-22T11:17:58.156Z,26.60
2018-04-22T11:20:25.685Z,25.20
2018-04-22T11:22:53.215Z,25.28
2018-04-22T11:25:20.746Z,24.38
2018-04-22T11:27:48.278Z,25.28
2018-04-22T11:30:15.923Z,25.77
2018-04-22T11:32:43.515Z,26.07
2018-04-22T11:35:11.072Z,25.94
2018-04-22T11:37:38.600Z,24.93
2018-04-22T11:40:06.121Z,25.06
2018-04-22T11:42:33.657Z,25.53
2018-04-22T11:45:01.181Z,25.76
2018-04-22T11:47:28.696Z,25.98
2018-04-22T11:49:56.219Z,25.39
2018-04-22T11:52:23.756Z,24.82
2018-04-22T11:54:51.275Z,25.10
2018-04-22T11:57:18.808Z,25.02
2018-04-22T11:59:46.337Z,25.30
2018-04-22T12:02:13.851Z,25.73
2018-04-22T12:04:41.490Z,24.90
2018-04-22T12:07:09.072Z,24.52
2018-04-22T12:09:36.711Z,24.28
2018-04-22T12:12:04.239Z,24.50
2018-04-22T12:14:31.764Z,24.44
2018-04-22T12:16:59.288Z,24.78
2018-04-22T12:19:26.819Z,24.40
2018-04-22T12:21:54.341Z,24.26
2018-04-22T12:24:21.909Z,24.46
2018-04-22T12:26:49.452Z,24.61
2018-04-22T12:29:17.018Z,24.48
2018-04-22T12:31:44.552Z,24.97
2018-04-22T12:34:12.109Z,24.68
2018-04-22T12:36:39.633Z,24.90
2018-04-22T12:39:07.156Z,25.00
2018-04-22T12:41:34.781Z,25.04
2018-04-22T12:44:02.316Z,25.07
2018-04-22T12:46:29.836Z,25.03
2018-04-22T12:48:57.358Z,25.08
2018-04-22T12:51:24.891Z,25.04
2018-04-22T12:53:52.469Z,25.02
2018-04-22T12:56:20.014Z,24.59
2018-04-22T12:58:47.580Z,24.86
2018-04-22T13:01:15.112Z,25.11
2018-04-22T13:03:42.656Z,24.98
2018-04-22T13:06:10.178Z,25.19
2018-04-22T13:08:37.709Z,25.12
2018-04-22T13:11:05.223Z,25.13
2018-04-22T13:13:32.755Z,25.15
2018-04-22T13:16:00.289Z,25.25
2018-04-22T13:18:27.808Z,24.59
2018-04-22T13:20:55.339Z,24.81
2018-04-22T13:23:22.860Z,24.64
2018-04-22T13:25:50.418Z,24.96
2018-04-22T13:28:18.072Z,24.39
2018-04-22T13:30:45.606Z,24.26
2018-04-22T13:33:13.137Z,24.30
2018-04-22T13:35:40.665Z,24.23
2018-04-22T13:38:08.193Z,24.23
2018-04-22T13:40:35.715Z,24.50
2018-04-22T13:43:03.227Z,24.67
2018-04-22T13:45:30.746Z,24.65
2018-04-22T13:47:58.261Z,24.57
2018-04-22T13:50:25.780Z,24.56
2018-04-22T13:52:53.312Z,24.71
2018-04-22T13:55:20.833Z,24.76
2018-04-22T13:57:48.362Z,24.69
2018-04-22T14:00:15.887Z,24.77
2018-04-22T14:02:43.415Z,24.53
2018-04-22T14:05:10.942Z,24.58
2018-04-22T14:07:38.465Z,24.53
2018-04-22T14:10:05.988Z,24.60
2018-04-22T14:12:33.511Z,24.60
2018-04-22T14:15:01.037Z,24.70
2018-04-22T14:17:28.566Z,24.75
2018-04-22T14:19:56.090Z,24.56
2018-04-22T14:22:23.603Z,24.40
2018-04-22T14:24:51.136Z,24.40
2018-04-22T14:27:18.661Z,24.68
2018-04-22T14:29:46.189Z,24.79
2018-04-22T14:32:13.714Z,24.78
2018-04-22T14:34:41.243Z,24.67
2018-04-22T14:37:08.752Z,24.58
2018-04-22T14:39:36.270Z,24.28
2018-04-22T14:42:03.789Z,24.18
2018-04-22T14:44:43.069Z,24.40
2018-04-22T14:47:10.584Z,24.41
2018-04-22T14:49:38.496Z,24.44
2018-04-22T14:52:06.032Z,24.57
2018-04-22T14:54:33.551Z,24.63
2018-04-22T14:57:01.067Z,24.44
2018-04-22T14:59:28.589Z,24.38
2018-04-22T15:01:56.118Z,24.48
2018-04-22T15:04:23.634Z,24.50
2018-04-22T15:06:51.165Z,24.47
2018-04-22T15:09:18.683Z,24.43
2018-04-22T15:11:46.212Z,24.41
2018-04-22T15:14:13.745Z,24.34
2018-04-22T15:16:41.273Z,24.21
2018-04-22T15:19:08.792Z,24.11
2018-04-22T15:21:36.322Z,23.98
2018-04-22T15:24:03.866Z,23.94
2018-04-22T15:26:31.413Z,23.97
2018-04-22T15:28:58.924Z,23.97
2018-04-22T15:31:26.456Z,23.98
2018-04-22T15:33:54.019Z,23.97
2018-04-22T15:36:21.533Z,23.95
2018-04-22T15:38:49.061Z,23.96
2018-04-22T15:41:16.579Z,23.86
2018-04-22T15:43:44.143Z,23.86
2018-04-22T15:46:11.667Z,23.87
2018-04-22T15:48:39.212Z,23.90
2018-04-22T15:51:06.769Z,23.93
2018-04-22T15:53:34.336Z,23.94
2018-04-22T15:56:01.963Z,23.91
2018-04-22T15:58:29.529Z,23.91
2018-04-22T16:00:57.056Z,23.89
2018-04-22T16:03:24.605Z,23.91
2018-04-22T16:05:52.165Z,23.86
2018-04-22T16:08:19.759Z,23.90
2018-04-22T16:10:47.302Z,23.93
2018-04-22T16:13:15.038Z,23.97
2018-04-22T16:15:42.582Z,23.97
2018-04-22T16:18:10.230Z,24.00
2018-04-22T16:20:37.813Z,23.87
2018-04-22T16:23:05.361Z,23.87
2018-04-22T16:25:32.867Z,23.86
2018-04-22T16:28:00.388Z,23.86
2018-04-22T16:30:27.921Z,23.82
2018-04-22T16:32:55.561Z,23.77
2018-04-22T16:35:23.160Z,23.80
2018-04-22T16:37:50.644Z,23.78
2018-04-22T16:40:18.173Z,23.78
2018-04-22T16:42:45.868Z,23.76
2018-04-22T16:45:13.400Z,23.71
2018-04-22T16:47:41.019Z,23.68
2018-04-22T16:50:08.547Z,23.68
2018-04-22T16:52:36.073Z,23.68
2018-04-22T16:55:03.600Z,23.66
2018-04-22T16:57:31.154Z,23.62
2018-04-22T16:59:59.080Z,23.59
2018-04-22T17:02:26.625Z,23.57
2018-04-22T17:04:54.147Z,23.57
2018-04-22T17:07:21.705Z,23.53
2018-04-22T17:09:49.233Z,23.54
2018-04-22T17:12:16.753Z,23.51
2018-04-22T17:14:44.353Z,23.50
2018-04-22T17:17:11.873Z,23.51
2018-04-22T17:19:39.399Z,23.48
2018-04-22T17:22:06.919Z,23.47
2018-04-22T17:24:34.452Z,23.44
2018-04-22T17:27:02.137Z,23.41
2018-04-22T17:29:29.670Z,23.41
2018-04-22T17:31:57.306Z,23.40
2018-04-22T17:34:24.883Z,23.37
2018-04-22T17:36:52.404Z,23.35
2018-04-22T17:39:20.092Z,23.34
2018-04-22T17:41:47.648Z,23.32
2018-04-22T17:44:15.177Z,23.30
2018-04-22T17:46:42.721Z,23.22
2018-04-22T17:49:10.307Z,23.12
2018-04-22T17:51:37.849Z,23.08
2018-04-22T17:54:05.371Z,23.03
2018-04-22T17:56:32.900Z,23.03
2018-04-22T17:59:00.471Z,22.96
2018-04-22T18:01:27.984Z,22.92
2018-04-22T18:03:55.586Z,22.83
2018-04-22T18:06:23.113Z,22.82
2018-04-22T18:08:50.702Z,22.76
2018-04-22T18:11:18.251Z,22.77
2018-04-22T18:13:45.776Z,22.66
2018-04-22T18:16:13.306Z,22.65
2018-04-22T18:18:40.847Z,22.58
2018-04-22T18:21:08.398Z,22.57
2018-04-22T18:23:35.931Z,22.45
2018-04-22T18:26:03.539Z,22.44
2018-04-22T18:28:31.120Z,22.40
2018-04-22T18:30:58.748Z,22.29
2018-04-22T18:33:26.273Z,22.27
2018-04-22T18:35:53.797Z,22.19
2018-04-22T18:38:21.360Z,22.19
2018-04-22T18:40:48.951Z,22.13
2018-04-22T18:43:16.547Z,22.08
2018-04-22T18:45:44.064Z,22.04
2018-04-22T18:48:11.604Z,22.01
2018-04-22T18:50:39.125Z,21.96
2018-04-22T18:53:06.656Z,21.89
2018-04-22T18:55:34.250Z,21.86
2018-04-22T18:58:01.768Z,21.80
2018-04-22T19:00:29.372Z,21.79
2018-04-22T19:02:56.977Z,21.76
2018-04-22T19:05:24.495Z,21.70
2018-04-22T19:07:52.027Z,21.63
2018-04-22T19:10:19.594Z,21.61
2018-04-22T19:12:47.132Z,21.55
2018-04-22T19:15:14.729Z,21.54
2018-04-22T19:17:42.248Z,21.52
2018-04-22T19:20:09.767Z,21.49
2018-04-22T19:22:37.287Z,21.47
2018-04-22T19:25:04.869Z,21.41
2018-04-22T19:27:32.528Z,21.38
2018-04-22T19:30:00.078Z,21.34
2018-04-22T19:32:27.613Z,21.30
2018-04-22T19:34:55.132Z,21.29
2018-04-22T19:37:22.665Z,21.23
2018-04-22T19:39:50.225Z,21.21
2018-04-22T19:42:17.804Z,21.22
2018-04-22T19:44:45.324Z,21.17
2018-04-22T19:47:12.867Z,21.14
2018-04-22T19:49:40.401Z,21.13
2018-04-22T19:52:07.925Z,21.09
2018-04-22T19:54:35.455Z,21.09
2018-04-22T19:57:03.372Z,21.06
2018-04-22T19:59:30.872Z,21.06
2018-04-22T20:01:58.393Z,21.04
2018-04-22T20:04:25.960Z,21.01
2018-04-22T20:06:53.583Z,21.00
2018-04-22T20:09:21.146Z,20.94
2018-04-22T20:11:48.677Z,20.93
2018-04-22T20:14:16.189Z,20.90
2018-04-22T20:16:43.724Z,20.94
2018-04-22T20:19:11.252Z,20.93
2018-04-22T20:21:38.814Z,20.88
2018-04-22T20:24:06.330Z,20.86
2018-04-22T20:26:33.861Z,20.85
2018-04-22T20:29:01.383Z,20.84
2018-04-22T20:31:28.903Z,20.82
2018-04-22T20:33:56.456Z,20.79
2018-04-22T20:36:23.963Z,20.81
2018-04-22T20:38:51.617Z,20.80
2018-04-22T20:41:19.222Z,20.77
2018-04-22T20:43:46.745Z,20.79
2018-04-22T20:46:14.443Z,20.79
2018-04-22T20:48:41.969Z,20.76
2018-04-22T20:51:09.579Z,20.76
2018-04-22T20:53:37.095Z,20.76
2018-04-22T20:56:04.635Z,20.70
2018-04-22T20:58:32.176Z,20.65
2018-04-22T21:00:59.683Z,20.65
2018-04-22T21:03:27.324Z,20.64
2018-04-22T21:05:54.970Z,20.63
2018-04-22T21:08:22.560Z,20.65
2018-04-22T21:10:50.070Z,20.65
2018-04-22T21:13:17.600Z,20.55
2018-04-22T21:15:45.221Z,20.56
2018-04-22T21:18:12.739Z,20.62
2018-04-22T21:20:40.318Z,20.67
2018-04-22T21:23:07.946Z,20.69
2018-04-22T21:25:35.608Z,20.70
2018-04-22T21:28:03.134Z,20.71
2018-04-22T21:30:30.699Z,20.72
2018-04-22T21:32:58.286Z,20.75
2018-04-22T21:35:25.953Z,20.76
2018-04-22T21:37:53.466Z,20.78
2018-04-22T21:40:21.000Z,20.78
2018-04-22T21:42:48.678Z,20.78
2018-04-22T21:45:16.447Z,20.77
2018-04-22T21:47:44.056Z,20.79
2018-04-22T21:50:11.572Z,20.79
2018-04-22T21:52:39.148Z,20.80
2018-04-22T21:55:06.733Z,20.81
2018-04-22T21:57:34.261Z,20.77
2018-04-22T22:00:01.781Z,20.77
2018-04-22T22:02:29.413Z,20.79
2018-04-22T22:04:56.978Z,20.76
2018-04-22T22:07:24.489Z,20.75
2018-04-22T22:09:52.017Z,20.75
2018-04-22T22:12:19.535Z,20.75
2018-04-22T22:14:47.062Z,20.73
2018-04-22T22:17:14.572Z,20.70
2018-04-22T22:19:42.095Z,20.71
2018-04-22T22:22:09.685Z,20.70
2018-04-22T22:24:37.195Z,20.72
2018-04-22T22:27:04.717Z,20.71
2018-04-22T22:29:32.238Z,20.70
2018-04-22T22:31:59.752Z,20.70
2018-04-22T22:34:27.385Z,20.70
2018-04-22T22:36:54.914Z,20.65
2018-04-22T22:39:22.435Z,20.66
2018-04-22T22:41:49.949Z,20.64
2018-04-22T22:44:17.472Z,20.64
2018-04-22T22:46:45.013Z,20.65
2018-04-22T22:49:12.541Z,20.61
2018-04-22T22:51:40.054Z,20.55
2018-04-22T22:54:07.579Z,20.56
2018-04-22T22:56:35.139Z,20.57
2018-04-22T22:59:02.661Z,20.53
2018-04-22T23:01:30.166Z,20.51
2018-04-22T23:03:57.679Z,20.49
2018-04-22T23:06:25.194Z,20.48
2018-04-22T23:08:52.713Z,20.38
2018-04-22T23:11:20.243Z,20.45
2018-04-22T23:13:47.782Z,20.46
2018-04-22T23:16:15.298Z,20.46
2018-04-22T23:18:42.813Z,20.42
2018-04-22T23:21:10.340Z,20.41
2018-04-22T23:23:37.872Z,20.40
2018-04-22T23:26:05.392Z,20.39
2018-04-22T23:28:32.913Z,20.36
2018-04-22T23:31:00.431Z,20.26
2018-04-22T23:33:27.956Z,20.25
2018-04-22T23:35:55.484Z,20.26
2018-04-22T23:38:22.991Z,20.21
2018-04-22T23:40:50.503Z,20.13
2018-04-22T23:43:18.009Z,20.14
2018-04-22T23:45:45.535Z,20.12
2018-04-22T23:48:13.047Z,20.06
2018-04-22T23:50:40.546Z,20.06
2018-04-22T23:53:08.075Z,20.02
2018-04-22T23:55:35.601Z,19.99
2018-04-22T23:58:03.125Z,20.01
